createdAt,value
2022-12-05T00:03:57.606Z,101349.45
2022-12-05T00:09:01.456Z,101338.02
2022-12-05T00:14:06.868Z,101341.33
2022-12-05T00:19:13.409Z,101337.07
2022-12-05T00:24:17.072Z,101346.54
2022-12-05T00:29:20.279Z,101338.64
2022-12-05T00:34:23.485Z,101325.10
2022-12-05T00:39:26.693Z,101321.25
2022-12-05T00:44:29.799Z,101316.39
2022-12-05T00:49:33.212Z,101308.16
2022-12-05T00:54:36.109Z,101303.27
2022-12-05T00:59:40.960Z,101313.84
2022-12-05T01:04:44.165Z,101323.52
2022-12-05T01:09:47.476Z,101315.61
2022-12-05T01:14:50.994Z,101317.20
2022-12-05T01:19:54.220Z,101315.13
2022-12-05T01:24:58.637Z,101315.84
2022-12-05T01:30:01.924Z,101315.27
2022-12-05T01:35:05.356Z,101306.32
2022-12-05T01:40:09.076Z,101304.73
2022-12-05T01:45:16.998Z,101305.64
2022-12-05T01:50:20.716Z,101300.09
2022-12-05T01:55:23.923Z,101305.73
2022-12-05T02:00:27.028Z,101300.42
2022-12-05T02:05:32.868Z,101303.39
2022-12-05T02:10:57.197Z,101299.36
2022-12-05T02:16:06.317Z,101285.63
2022-12-05T02:21:21.433Z,101283.69
2022-12-05T02:26:50.140Z,101281.42
2022-12-05T02:32:12.393Z,101275.48
2022-12-05T02:37:28.811Z,101280.73
2022-12-05T02:42:50.761Z,101278.12
2022-12-05T02:47:55.193Z,101266.52
2022-12-05T02:53:04.036Z,101265.85
2022-12-05T02:58:13.591Z,101266.89
2022-12-05T03:03:20.221Z,101271.13
2022-12-05T03:08:29.938Z,101275.52
2022-12-05T03:13:46.061Z,101265.85
2022-12-05T03:18:54.481Z,101257.95
2022-12-05T03:24:03.804Z,101262.02
2022-12-05T03:29:28.338Z,101265.54
2022-12-05T03:34:46.086Z,101267.15
2022-12-05T03:40:01.274Z,101267.26
2022-12-05T03:45:10.892Z,101264.88
2022-12-05T03:50:29.925Z,101269.02
2022-12-05T03:55:36.851Z,101266.77
2022-12-05T04:00:45.477Z,101256.29
2022-12-05T04:05:55.815Z,101258.02
2022-12-05T04:11:03.361Z,101256.45
2022-12-05T04:16:48.924Z,101249.09
2022-12-05T04:21:55.869Z,101250.02
2022-12-05T04:27:28.622Z,101242.30
2022-12-05T04:32:48.727Z,101239.55
2022-12-05T04:37:56.446Z,101236.97
2022-12-05T04:43:01.848Z,101233.16
2022-12-05T04:48:11.928Z,101226.73
2022-12-05T04:53:17.120Z,101219.42
2022-12-05T04:58:26.198Z,101229.44
2022-12-05T05:03:36.233Z,101236.98
2022-12-05T05:08:49.622Z,101243.69
2022-12-05T05:13:53.405Z,101250.16
2022-12-05T05:18:56.886Z,101247.73
2022-12-05T05:24:00.636Z,101240.86
2022-12-05T05:29:04.055Z,101242.34
2022-12-05T05:34:09.884Z,101240.64
2022-12-05T05:39:15.496Z,101238.77
2022-12-05T05:44:18.795Z,101232.28
2022-12-05T05:49:21.999Z,101225.98
2022-12-05T05:54:25.207Z,101229.48
2022-12-05T05:59:28.543Z,101223.81
2022-12-05T06:04:31.930Z,101224.98
2022-12-05T06:09:34.931Z,101228.77
2022-12-05T06:14:38.320Z,101226.35
2022-12-05T06:19:41.454Z,101224.26
2022-12-05T06:24:44.761Z,101224.08
2022-12-05T06:29:51.347Z,101220.38
2022-12-05T06:34:58.875Z,101224.06
2022-12-05T06:40:03.299Z,101232.27
2022-12-05T06:45:08.055Z,101242.59
2022-12-05T06:50:12.065Z,101244.48
2022-12-05T06:55:15.784Z,101248.35
2022-12-05T07:00:38.616Z,101254.98
2022-12-05T07:05:42.066Z,101256.20
2022-12-05T07:10:52.432Z,101254.38
2022-12-05T07:15:56.049Z,101258.85
2022-12-05T07:21:16.820Z,101255.85
2022-12-05T07:26:23.056Z,101253.96
2022-12-05T07:31:26.706Z,101253.59
2022-12-05T07:36:30.084Z,101253.54
2022-12-05T07:41:35.274Z,101251.15
2022-12-05T07:46:39.417Z,101248.45
2022-12-05T07:51:42.574Z,101242.12
2022-12-05T07:56:47.917Z,101239.61
2022-12-05T08:01:51.640Z,101239.77
2022-12-05T08:06:54.962Z,101235.31
2022-12-05T08:11:58.478Z,101236.30
2022-12-05T08:17:01.626Z,101240.99
2022-12-05T08:22:04.790Z,101241.67
2022-12-05T08:27:08.104Z,101240.71
2022-12-05T08:32:11.308Z,101237.64
2022-12-05T08:37:14.721Z,101238.10
2022-12-05T08:42:18.709Z,101238.92
2022-12-05T08:47:22.060Z,101234.52
2022-12-05T08:52:25.266Z,101227.48
2022-12-05T08:57:28.679Z,101226.59
2022-12-05T09:02:31.935Z,101232.87
2022-12-05T09:07:35.332Z,101236.84
2022-12-05T09:12:39.532Z,101234.40
2022-12-05T09:17:42.747Z,101228.04
2022-12-05T09:22:45.947Z,101226.59
2022-12-05T09:27:49.253Z,101218.81
2022-12-05T09:32:52.463Z,101225.29
2022-12-05T09:37:57.414Z,101219.23
2022-12-05T09:43:16.701Z,101211.45
2022-12-05T09:48:23.369Z,101199.84
2022-12-05T09:53:37.650Z,101193.47
2022-12-05T09:58:49.646Z,101188.52
2022-12-05T10:04:21.126Z,101185.59
2022-12-05T10:09:33.768Z,101173.64
2022-12-05T10:14:49.261Z,101160.31
2022-12-05T10:19:56.768Z,101153.28
2022-12-05T10:25:08.783Z,101153.55
2022-12-05T10:30:12.911Z,101149.66
2022-12-05T10:35:27.283Z,101149.81
2022-12-05T10:40:43.595Z,101149.37
2022-12-05T10:45:48.340Z,101138.00
2022-12-05T10:50:54.208Z,101128.02
2022-12-05T10:56:29.463Z,101116.46
2022-12-05T11:01:23.245Z,101117.97
2022-12-05T11:06:31.074Z,101114.77
2022-12-05T11:11:34.922Z,101112.60
2022-12-05T11:16:40.055Z,101106.20
2022-12-05T11:21:43.774Z,101102.27
2022-12-05T11:26:47.280Z,101103.95
2022-12-05T11:31:53.256Z,101102.99
2022-12-05T11:37:01.786Z,101104.40
2022-12-05T11:42:42.881Z,101102.41
2022-12-05T11:48:31.556Z,101095.91
2022-12-05T11:53:46.948Z,101093.14
2022-12-05T11:59:09.003Z,101082.23
2022-12-05T12:04:46.616Z,101072.00
2022-12-05T12:10:09.997Z,101073.98
2022-12-05T12:16:08.501Z,101068.23
2022-12-05T12:21:18.775Z,101058.33
2022-12-05T12:26:34.166Z,101055.73
2022-12-05T12:32:02.127Z,101050.76
2022-12-05T12:37:30.415Z,101042.02
2022-12-05T12:42:42.565Z,101033.41
2022-12-05T12:47:45.779Z,101034.21
2022-12-05T12:53:08.949Z,101031.23
2022-12-05T12:58:24.546Z,101028.99
2022-12-05T13:03:38.814Z,101019.08
2022-12-05T13:09:02.429Z,101012.65
2022-12-05T13:14:10.118Z,101012.45
2022-12-05T13:19:30.791Z,101011.55
2022-12-05T13:24:34.755Z,101009.45
2022-12-05T13:29:51.119Z,100999.80
2022-12-05T13:34:56.159Z,101003.09
2022-12-05T13:40:18.171Z,100997.57
2022-12-05T13:45:23.280Z,100991.68
2022-12-05T13:50:29.603Z,100989.14
2022-12-05T13:55:40.391Z,100986.46
2022-12-05T14:00:43.496Z,100987.03
2022-12-05T14:05:49.364Z,100989.52
2022-12-05T14:10:52.570Z,100983.80
2022-12-05T14:16:24.957Z,100973.88
2022-12-05T14:21:57.557Z,100968.52
2022-12-05T14:27:33.128Z,100966.61
2022-12-05T14:32:41.183Z,100959.08
2022-12-05T14:38:03.609Z,100955.05
2022-12-05T14:43:34.050Z,100944.89
2022-12-05T14:48:47.989Z,100931.49
2022-12-05T14:53:52.246Z,100921.16
2022-12-05T14:59:24.718Z,100915.13
2022-12-05T15:04:46.210Z,100907.42
2022-12-05T15:10:13.548Z,100897.08
2022-12-05T15:15:36.228Z,100881.48
2022-12-05T15:20:50.586Z,100888.02
2022-12-05T15:25:57.198Z,100894.17
2022-12-05T15:31:01.133Z,100897.86
2022-12-05T15:36:06.245Z,100892.54
2022-12-05T15:41:18.213Z,100904.92
2022-12-05T15:46:28.105Z,100909.79
2022-12-05T15:51:38.642Z,100914.67
2022-12-05T15:56:52.172Z,100913.98
2022-12-05T16:02:04.076Z,100918.11
2022-12-05T16:07:11.757Z,100916.98
2022-12-05T16:12:38.649Z,100919.52
2022-12-05T16:17:47.048Z,100915.31
2022-12-05T16:22:55.680Z,100907.45
2022-12-05T16:28:03.311Z,100903.48
2022-12-05T16:33:17.192Z,100896.16
2022-12-05T16:38:26.384Z,100889.90
2022-12-05T16:43:33.255Z,100881.77
2022-12-05T16:48:36.843Z,100878.80
2022-12-05T16:53:51.996Z,100866.50
2022-12-05T16:58:57.478Z,100861.61
2022-12-05T17:04:00.929Z,100857.74
2022-12-05T17:09:04.512Z,100862.16
2022-12-05T17:14:13.559Z,100864.61
2022-12-05T17:19:16.973Z,100858.64
2022-12-05T17:24:21.461Z,100852.65
2022-12-05T17:29:25.441Z,100856.32
2022-12-05T17:34:30.184Z,100852.98
2022-12-05T17:39:34.003Z,100852.08
2022-12-05T17:44:38.188Z,100846.59
2022-12-05T17:49:41.956Z,100840.77
2022-12-05T17:54:45.469Z,100841.44
2022-12-05T17:59:48.884Z,100843.02
2022-12-05T18:04:53.215Z,100835.65
2022-12-05T18:09:56.961Z,100832.50
2022-12-05T18:15:00.304Z,100827.91
2022-12-05T18:20:09.391Z,100827.55
2022-12-05T18:25:16.597Z,100827.86
2022-12-05T18:30:20.621Z,100821.47
2022-12-05T18:35:40.841Z,100815.61
2022-12-05T18:40:44.247Z,100808.02
2022-12-05T18:45:55.085Z,100802.88
2022-12-05T18:51:19.224Z,100798.42
2022-12-05T18:56:31.786Z,100791.15
2022-12-05T19:01:39.958Z,100785.83
2022-12-05T19:06:50.122Z,100774.54
2022-12-05T19:11:57.709Z,100771.18
2022-12-05T19:17:02.164Z,100774.48
2022-12-05T19:22:05.712Z,100772.15
2022-12-05T19:27:09.333Z,100769.49
2022-12-05T19:32:12.938Z,100778.38
2022-12-05T19:37:16.358Z,100777.63
2022-12-05T19:42:19.774Z,100776.86
2022-12-05T19:47:23.082Z,100778.27
2022-12-05T19:52:26.702Z,100774.00
2022-12-05T19:57:31.559Z,100770.02
2022-12-05T20:02:39.743Z,100768.33
2022-12-05T20:07:43.650Z,100766.27
2022-12-05T20:12:46.907Z,100760.20
2022-12-05T20:17:53.355Z,100754.00
2022-12-05T20:22:57.826Z,100748.48
2022-12-05T20:28:01.343Z,100747.56
2022-12-05T20:33:04.651Z,100743.98
2022-12-05T20:38:07.655Z,100742.55
2022-12-05T20:43:11.124Z,100739.02
2022-12-05T20:48:14.586Z,100733.23
2022-12-05T20:53:19.375Z,100730.06
2022-12-05T20:58:23.253Z,100727.61
2022-12-05T21:03:26.868Z,100732.36
2022-12-05T21:08:30.075Z,100733.01
2022-12-05T21:13:33.286Z,100732.63
2022-12-05T21:18:38.085Z,100730.10
2022-12-05T21:23:46.764Z,100730.02
2022-12-05T21:28:51.102Z,100726.63
2022-12-05T21:33:57.334Z,100723.93
2022-12-05T21:39:01.104Z,100716.45
2022-12-05T21:44:04.822Z,100714.05
2022-12-05T21:49:08.446Z,100711.55
2022-12-05T21:54:12.073Z,100709.02
2022-12-05T21:59:15.797Z,100700.66
2022-12-05T22:04:19.190Z,100694.38
2022-12-05T22:09:22.293Z,100688.14
2022-12-05T22:14:25.705Z,100680.14
2022-12-05T22:19:29.537Z,100673.23
2022-12-05T22:24:33.044Z,100662.11
2022-12-05T22:29:36.355Z,100652.73
2022-12-05T22:34:39.766Z,100643.95
2022-12-05T22:39:42.871Z,100640.56
2022-12-05T22:44:46.079Z,100634.77
2022-12-05T22:49:49.494Z,100629.67
2022-12-05T22:54:53.417Z,100627.33
2022-12-05T22:59:56.890Z,100627.62
2022-12-05T23:05:00.550Z,100627.58
2022-12-05T23:10:04.548Z,100623.83
2022-12-05T23:15:08.780Z,100625.71
2022-12-05T23:20:13.247Z,100608.98
2022-12-05T23:25:16.454Z,100595.78
2022-12-05T23:30:19.764Z,100588.02
2022-12-05T23:35:23.074Z,100582.87
2022-12-05T23:40:26.286Z,100580.50
2022-12-05T23:45:29.395Z,100570.63
2022-12-05T23:50:32.592Z,100559.81
2022-12-05T23:55:36.109Z,100554.64
